Portada
METAR-TAF:

METAR-TAF

Aeropuertos :

West Memphis, Arkansas, Estados Unidos

latitud: 35-08N, longitud: 090-14W, altitud: 65 m

Observación

El informe se hizo hace 1 hora y 4 minutos, a las 09:53 UTC
Viento 3 kt del sur-sureste
Temperatura 6°C
Humedad 75%
Presión 1023 hPa
Visibilidad: 16.1 km
Escasas nubes a una altura de 6500 ft

METAR: KAWM 230953Z AUTO 16003KT 10SM FEW065 06/02 A3020 RMK AO2 SLP228 T00610017

Hora: 04:57 (10:57 UTC)


TAF: falta

Observaciones y pronósticos meteorológicos de más de 4000 aeropuertos (mensajes METAR y TAF).

Los puntos amarillos y rojos representan las estaciones disponibles.

Ponga el ratón en el punto deseado para ver el nombre de la estación.

Haga clic para ver las observaciones y los pronósticos meteorológicos.

Para cambiar el mapa : haga clic en los botones verdes con una cruz de color negro para hacer un zoom, en el botón verde con un guión para alejar o en las flechas verdes para mapas adyacentes.


METAR-TAF: